sensor_id;sensor_type;location;lat;lon;timestamp;P1;durP1;ratioP1;P2;durP2;ratioP2
16450;SDS011;12243;42.708;23.310;2022-09-13T00:01:08;4.37;;;4.10;;
16450;SDS011;12243;42.708;23.310;2022-09-13T00:03:35;4.37;;;4.07;;
16450;SDS011;12243;42.708;23.310;2022-09-13T00:06:06;4.00;;;3.70;;
16450;SDS011;12243;42.708;23.310;2022-09-13T00:23:50;4.70;;;4.30;;
16450;SDS011;12243;42.708;23.310;2022-09-13T00:26:19;4.70;;;4.37;;
16450;SDS011;12243;42.708;23.310;2022-09-13T00:28:48;5.00;;;4.50;;
16450;SDS011;12243;42.708;23.310;2022-09-13T00:31:16;4.87;;;4.50;;
16450;SDS011;12243;42.708;23.310;2022-09-13T00:33:44;4.77;;;4.37;;
16450;SDS011;12243;42.708;23.310;2022-09-13T00:36:11;4.93;;;4.47;;
16450;SDS011;12243;42.708;23.310;2022-09-13T00:38:41;5.07;;;4.50;;
16450;SDS011;12243;42.708;23.310;2022-09-13T00:41:09;4.90;;;4.67;;
16450;SDS011;12243;42.708;23.310;2022-09-13T00:43:43;4.67;;;4.37;;
16450;SDS011;12243;42.708;23.310;2022-09-13T00:46:15;5.10;;;4.60;;
16450;SDS011;12243;42.708;23.310;2022-09-13T00:48:46;6.47;;;5.03;;
16450;SDS011;12243;42.708;23.310;2022-09-13T00:51:16;4.90;;;4.43;;
16450;SDS011;12243;42.708;23.310;2022-09-13T00:53:45;4.87;;;4.47;;
16450;SDS011;12243;42.708;23.310;2022-09-13T00:56:16;5.53;;;4.50;;
16450;SDS011;12243;42.708;23.310;2022-09-13T00:58:47;4.53;;;4.20;;
16450;SDS011;12243;42.708;23.310;2022-09-13T01:01:18;4.83;;;4.47;;
16450;SDS011;12243;42.708;23.310;2022-09-13T01:03:48;5.73;;;5.17;;
16450;SDS011;12243;42.708;23.310;2022-09-13T01:06:16;5.00;;;4.60;;
16450;SDS011;12243;42.708;23.310;2022-09-13T01:08:48;5.97;;;4.60;;
16450;SDS011;12243;42.708;23.310;2022-09-13T01:11:18;5.40;;;5.00;;
16450;SDS011;12243;42.708;23.310;2022-09-13T01:13:56;5.10;;;4.70;;
16450;SDS011;12243;42.708;23.310;2022-09-13T01:16:24;4.63;;;4.33;;
16450;SDS011;12243;42.708;23.310;2022-09-13T01:18:52;5.57;;;4.63;;
16450;SDS011;12243;42.708;23.310;2022-09-13T01:21:26;5.60;;;5.10;;
16450;SDS011;12243;42.708;23.310;2022-09-13T01:27:21;10.87;;;5.20;;
16450;SDS011;12243;42.708;23.310;2022-09-13T01:30:04;5.30;;;4.90;;
16450;SDS011;12243;42.708;23.310;2022-09-13T01:32:40;5.30;;;4.90;;
16450;SDS011;12243;42.708;23.310;2022-09-13T01:35:21;5.90;;;4.83;;
16450;SDS011;12243;42.708;23.310;2022-09-13T01:37:59;6.07;;;4.77;;
16450;SDS011;12243;42.708;23.310;2022-09-13T01:40:38;5.00;;;4.57;;
16450;SDS011;12243;42.708;23.310;2022-09-13T01:43:18;4.77;;;4.47;;
16450;SDS011;12243;42.708;23.310;2022-09-13T01:45:55;8.23;;;5.37;;
16450;SDS011;12243;42.708;23.310;2022-09-13T01:48:31;5.73;;;4.90;;
16450;SDS011;12243;42.708;23.310;2022-09-13T01:51:05;5.50;;;5.10;;
16450;SDS011;12243;42.708;23.310;2022-09-13T01:53:39;5.77;;;5.37;;
16450;SDS011;12243;42.708;23.310;2022-09-13T01:56:19;5.80;;;5.40;;
16450;SDS011;12243;42.708;23.310;2022-09-13T01:58:52;4.73;;;4.43;;
16450;SDS011;12243;42.708;23.310;2022-09-13T02:01:25;5.10;;;4.57;;
16450;SDS011;12243;42.708;23.310;2022-09-13T02:03:57;7.60;;;5.17;;
16450;SDS011;12243;42.708;23.310;2022-09-13T02:06:29;5.83;;;5.30;;
16450;SDS011;12243;42.708;23.310;2022-09-13T02:09:01;5.40;;;5.00;;
16450;SDS011;12243;42.708;23.310;2022-09-13T02:11:33;4.73;;;4.43;;
16450;SDS011;12243;42.708;23.310;2022-09-13T02:14:03;9.03;;;5.37;;
16450;SDS011;12243;42.708;23.310;2022-09-13T02:16:37;5.67;;;5.23;;
16450;SDS011;12243;42.708;23.310;2022-09-13T02:19:08;5.40;;;4.90;;
16450;SDS011;12243;42.708;23.310;2022-09-13T02:21:40;6.57;;;4.77;;
16450;SDS011;12243;42.708;23.310;2022-09-13T02:24:15;5.40;;;4.90;;
16450;SDS011;12243;42.708;23.310;2022-09-13T02:26:46;8.67;;;5.07;;
16450;SDS011;12243;42.708;23.310;2022-09-13T02:29:17;6.57;;;5.03;;
16450;SDS011;12243;42.708;23.310;2022-09-13T02:31:50;5.70;;;5.20;;
16450;SDS011;12243;42.708;23.310;2022-09-13T02:34:21;5.40;;;5.00;;
16450;SDS011;12243;42.708;23.310;2022-09-13T02:36:51;5.50;;;5.10;;
16450;SDS011;12243;42.708;23.310;2022-09-13T02:39:22;5.30;;;4.80;;
16450;SDS011;12243;42.708;23.310;2022-09-13T02:41:53;6.23;;;5.70;;
16450;SDS011;12243;42.708;23.310;2022-09-13T02:44:23;6.10;;;5.60;;
16450;SDS011;12243;42.708;23.310;2022-09-13T02:47:07;8.03;;;5.87;;
16450;SDS011;12243;42.708;23.310;2022-09-13T02:49:48;7.47;;;5.80;;
16450;SDS011;12243;42.708;23.310;2022-09-13T02:52:26;5.37;;;4.93;;
16450;SDS011;12243;42.708;23.310;2022-09-13T02:55:05;5.77;;;5.23;;
16450;SDS011;12243;42.708;23.310;2022-09-13T02:57:46;5.43;;;4.93;;
16450;SDS011;12243;42.708;23.310;2022-09-13T03:00:20;5.60;;;5.10;;
16450;SDS011;12243;42.708;23.310;2022-09-13T03:02:49;5.90;;;5.40;;
16450;SDS011;12243;42.708;23.310;2022-09-13T03:05:18;5.87;;;4.97;;
16450;SDS011;12243;42.708;23.310;2022-09-13T03:07:46;5.43;;;4.93;;
16450;SDS011;12243;42.708;23.310;2022-09-13T03:10:13;5.27;;;4.87;;
16450;SDS011;12243;42.708;23.310;2022-09-13T03:12:58;5.77;;;5.17;;
16450;SDS011;12243;42.708;23.310;2022-09-13T03:15:50;5.27;;;4.87;;
16450;SDS011;12243;42.708;23.310;2022-09-13T03:18:38;5.60;;;5.13;;
16450;SDS011;12243;42.708;23.310;2022-09-13T03:21:18;5.60;;;5.10;;
16450;SDS011;12243;42.708;23.310;2022-09-13T03:24:01;5.87;;;5.27;;
16450;SDS011;12243;42.708;23.310;2022-09-13T03:26:48;7.97;;;5.20;;
16450;SDS011;12243;42.708;23.310;2022-09-13T03:29:25;5.70;;;5.20;;
16450;SDS011;12243;42.708;23.310;2022-09-13T03:32:01;5.70;;;5.20;;
16450;SDS011;12243;42.708;23.310;2022-09-13T03:34:36;5.17;;;4.70;;
16450;SDS011;12243;42.708;23.310;2022-09-13T03:37:13;6.13;;;5.63;;
16450;SDS011;12243;42.708;23.310;2022-09-13T03:39:47;4.93;;;4.53;;
16450;SDS011;12243;42.708;23.310;2022-09-13T03:42:20;5.47;;;5.00;;
16450;SDS011;12243;42.708;23.310;2022-09-13T03:44:51;5.03;;;4.73;;
16450;SDS011;12243;42.708;23.310;2022-09-13T03:47:22;7.03;;;5.20;;
16450;SDS011;12243;42.708;23.310;2022-09-13T03:49:55;5.07;;;4.67;;
16450;SDS011;12243;42.708;23.310;2022-09-13T03:52:22;5.10;;;4.63;;
16450;SDS011;12243;42.708;23.310;2022-09-13T03:54:49;5.13;;;4.73;;
16450;SDS011;12243;42.708;23.310;2022-09-13T03:57:19;5.13;;;4.77;;
16450;SDS011;12243;42.708;23.310;2022-09-13T03:59:48;6.30;;;5.47;;
16450;SDS011;12243;42.708;23.310;2022-09-13T04:02:16;5.27;;;4.97;;
16450;SDS011;12243;42.708;23.310;2022-09-13T04:04:44;6.03;;;5.47;;
16450;SDS011;12243;42.708;23.310;2022-09-13T04:07:15;6.30;;;5.83;;
16450;SDS011;12243;42.708;23.310;2022-09-13T04:09:44;9.27;;;5.40;;
16450;SDS011;12243;42.708;23.310;2022-09-13T04:12:11;7.87;;;5.77;;
16450;SDS011;12243;42.708;23.310;2022-09-13T04:14:39;5.97;;;5.37;;
16450;SDS011;12243;42.708;23.310;2022-09-13T04:17:07;6.20;;;5.17;;
16450;SDS011;12243;42.708;23.310;2022-09-13T04:19:34;5.83;;;5.33;;
16450;SDS011;12243;42.708;23.310;2022-09-13T04:22:01;6.03;;;5.53;;
16450;SDS011;12243;42.708;23.310;2022-09-13T04:24:29;5.87;;;5.37;;
16450;SDS011;12243;42.708;23.310;2022-09-13T04:26:56;6.17;;;5.17;;
16450;SDS011;12243;42.708;23.310;2022-09-13T04:29:24;5.87;;;5.27;;
16450;SDS011;12243;42.708;23.310;2022-09-13T04:31:52;6.23;;;5.47;;
16450;SDS011;12243;42.708;23.310;2022-09-13T04:34:19;6.33;;;5.60;;
16450;SDS011;12243;42.708;23.310;2022-09-13T04:36:47;6.47;;;5.80;;
16450;SDS011;12243;42.708;23.310;2022-09-13T04:39:15;6.50;;;4.93;;
16450;SDS011;12243;42.708;23.310;2022-09-13T04:41:43;6.67;;;6.00;;
16450;SDS011;12243;42.708;23.310;2022-09-13T04:44:12;5.97;;;5.20;;
16450;SDS011;12243;42.708;23.310;2022-09-13T04:46:40;4.90;;;4.60;;
16450;SDS011;12243;42.708;23.310;2022-09-13T04:49:08;5.23;;;4.77;;
16450;SDS011;12243;42.708;23.310;2022-09-13T04:52:15;5.13;;;4.83;;
16450;SDS011;12243;42.708;23.310;2022-09-13T04:54:41;5.87;;;4.73;;
16450;SDS011;12243;42.708;23.310;2022-09-13T04:57:10;6.27;;;4.80;;
16450;SDS011;12243;42.708;23.310;2022-09-13T04:59:37;7.73;;;5.00;;
16450;SDS011;12243;42.708;23.310;2022-09-13T05:02:04;5.20;;;4.80;;
16450;SDS011;12243;42.708;23.310;2022-09-13T05:04:31;4.70;;;4.30;;
16450;SDS011;12243;42.708;23.310;2022-09-13T05:06:58;5.60;;;4.37;;
16450;SDS011;12243;42.708;23.310;2022-09-13T05:09:25;4.80;;;4.30;;
16450;SDS011;12243;42.708;23.310;2022-09-13T05:11:51;6.70;;;4.17;;
16450;SDS011;12243;42.708;23.310;2022-09-13T05:14:20;5.53;;;4.50;;
16450;SDS011;12243;42.708;23.310;2022-09-13T05:16:46;4.87;;;4.47;;
16450;SDS011;12243;42.708;23.310;2022-09-13T05:19:13;5.20;;;4.33;;
16450;SDS011;12243;42.708;23.310;2022-09-13T05:21:40;4.50;;;3.97;;
16450;SDS011;12243;42.708;23.310;2022-09-13T05:24:07;5.10;;;3.80;;
16450;SDS011;12243;42.708;23.310;2022-09-13T05:26:34;3.93;;;3.57;;
16450;SDS011;12243;42.708;23.310;2022-09-13T05:29:02;4.50;;;3.80;;
16450;SDS011;12243;42.708;23.310;2022-09-13T05:31:32;3.63;;;3.43;;
16450;SDS011;12243;42.708;23.310;2022-09-13T05:34:04;3.93;;;3.60;;
16450;SDS011;12243;42.708;23.310;2022-09-13T05:36:32;4.10;;;3.70;;
16450;SDS011;12243;42.708;23.310;2022-09-13T05:39:01;8.97;;;3.67;;
16450;SDS011;12243;42.708;23.310;2022-09-13T05:41:29;5.50;;;4.03;;
16450;SDS011;12243;42.708;23.310;2022-09-13T05:43:56;3.83;;;3.53;;
16450;SDS011;12243;42.708;23.310;2022-09-13T05:46:25;5.87;;;3.87;;
16450;SDS011;12243;42.708;23.310;2022-09-13T05:48:56;4.67;;;4.27;;
16450;SDS011;12243;42.708;23.310;2022-09-13T05:51:25;4.27;;;3.97;;
16450;SDS011;12243;42.708;23.310;2022-09-13T05:54:00;5.63;;;4.10;;
16450;SDS011;12243;42.708;23.310;2022-09-13T05:56:28;6.47;;;4.37;;
16450;SDS011;12243;42.708;23.310;2022-09-13T05:58:56;5.40;;;4.00;;
16450;SDS011;12243;42.708;23.310;2022-09-13T06:01:24;4.40;;;4.00;;
16450;SDS011;12243;42.708;23.310;2022-09-13T06:03:54;5.27;;;3.40;;
16450;SDS011;12243;42.708;23.310;2022-09-13T06:06:25;4.10;;;3.80;;
16450;SDS011;12243;42.708;23.310;2022-09-13T06:08:52;5.07;;;4.10;;
16450;SDS011;12243;42.708;23.310;2022-09-13T06:11:19;4.03;;;3.70;;
16450;SDS011;12243;42.708;23.310;2022-09-13T06:13:46;4.28;;;3.85;;
16450;SDS011;12243;42.708;23.310;2022-09-13T06:16:13;5.03;;;3.92;;
16450;SDS011;12243;42.708;23.310;2022-09-13T06:18:41;4.07;;;3.70;;
16450;SDS011;12243;42.708;23.310;2022-09-13T06:21:11;4.45;;;4.10;;
16450;SDS011;12243;42.708;23.310;2022-09-13T06:23:42;3.90;;;3.60;;
16450;SDS011;12243;42.708;23.310;2022-09-13T06:26:10;7.75;;;4.40;;
16450;SDS011;12243;42.708;23.310;2022-09-13T06:28:39;6.63;;;4.75;;
16450;SDS011;12243;42.708;23.310;2022-09-13T06:31:07;3.93;;;3.40;;
16450;SDS011;12243;42.708;23.310;2022-09-13T06:33:36;4.27;;;3.87;;
16450;SDS011;12243;42.708;23.310;2022-09-13T06:36:05;3.97;;;3.53;;
16450;SDS011;12243;42.708;23.310;2022-09-13T06:38:34;8.55;;;4.43;;
16450;SDS011;12243;42.708;23.310;2022-09-13T06:41:02;4.85;;;4.25;;
16450;SDS011;12243;42.708;23.310;2022-09-13T06:43:31;4.10;;;3.40;;
16450;SDS011;12243;42.708;23.310;2022-09-13T06:45:59;3.85;;;3.53;;
16450;SDS011;12243;42.708;23.310;2022-09-13T06:48:29;3.90;;;3.60;;
16450;SDS011;12243;42.708;23.310;2022-09-13T06:50:57;7.28;;;3.88;;
16450;SDS011;12243;42.708;23.310;2022-09-13T06:53:25;3.67;;;3.40;;
16450;SDS011;12243;42.708;23.310;2022-09-13T06:56:01;5.25;;;3.92;;
16450;SDS011;12243;42.708;23.310;2022-09-13T06:58:30;4.70;;;4.30;;
16450;SDS011;12243;42.708;23.310;2022-09-13T07:01:08;4.60;;;4.20;;
16450;SDS011;12243;42.708;23.310;2022-09-13T07:03:37;6.72;;;3.85;;
16450;SDS011;12243;42.708;23.310;2022-09-13T07:06:05;6.40;;;3.20;;
16450;SDS011;12243;42.708;23.310;2022-09-13T07:08:34;3.88;;;3.58;;
16450;SDS011;12243;42.708;23.310;2022-09-13T07:11:03;4.55;;;3.75;;
16450;SDS011;12243;42.708;23.310;2022-09-13T07:13:29;4.07;;;3.40;;
16450;SDS011;12243;42.708;23.310;2022-09-13T07:15:56;3.78;;;3.47;;
16450;SDS011;12243;42.708;23.310;2022-09-13T07:18:27;4.05;;;3.50;;
16450;SDS011;12243;42.708;23.310;2022-09-13T07:20:57;3.78;;;3.55;;
16450;SDS011;12243;42.708;23.310;2022-09-13T07:23:26;7.85;;;3.38;;
16450;SDS011;12243;42.708;23.310;2022-09-13T07:25:53;4.20;;;3.60;;
16450;SDS011;12243;42.708;23.310;2022-09-13T07:28:28;3.33;;;3.10;;
16450;SDS011;12243;42.708;23.310;2022-09-13T07:31:02;4.68;;;3.28;;
16450;SDS011;12243;42.708;23.310;2022-09-13T07:33:30;5.13;;;3.63;;
16450;SDS011;12243;42.708;23.310;2022-09-13T07:35:57;4.70;;;3.78;;
16450;SDS011;12243;42.708;23.310;2022-09-13T07:38:32;3.50;;;3.20;;
16450;SDS011;12243;42.708;23.310;2022-09-13T07:41:00;4.25;;;3.70;;
16450;SDS011;12243;42.708;23.310;2022-09-13T07:43:32;5.85;;;3.60;;
16450;SDS011;12243;42.708;23.310;2022-09-13T07:46:00;4.18;;;3.92;;
16450;SDS011;12243;42.708;23.310;2022-09-13T07:48:28;4.20;;;3.65;;
16450;SDS011;12243;42.708;23.310;2022-09-13T07:50:57;4.10;;;3.75;;
16450;SDS011;12243;42.708;23.310;2022-09-13T07:53:25;3.33;;;3.05;;
16450;SDS011;12243;42.708;23.310;2022-09-13T07:55:52;4.18;;;3.45;;
16450;SDS011;12243;42.708;23.310;2022-09-13T07:58:19;4.82;;;3.17;;
16450;SDS011;12243;42.708;23.310;2022-09-13T08:00:47;3.08;;;2.78;;
16450;SDS011;12243;42.708;23.310;2022-09-13T08:03:14;3.30;;;3.05;;
16450;SDS011;12243;42.708;23.310;2022-09-13T08:05:41;5.15;;;3.00;;
16450;SDS011;12243;42.708;23.310;2022-09-13T08:08:08;2.92;;;2.72;;
16450;SDS011;12243;42.708;23.310;2022-09-13T08:10:35;2.83;;;2.72;;
16450;SDS011;12243;42.708;23.310;2022-09-13T08:13:02;3.38;;;2.60;;
16450;SDS011;12243;42.708;23.310;2022-09-13T08:15:29;2.53;;;2.40;;
16450;SDS011;12243;42.708;23.310;2022-09-13T08:17:57;2.90;;;2.40;;
16450;SDS011;12243;42.708;23.310;2022-09-13T08:20:24;2.85;;;2.60;;
16450;SDS011;12243;42.708;23.310;2022-09-13T08:22:51;4.55;;;2.75;;
16450;SDS011;12243;42.708;23.310;2022-09-13T08:25:18;2.90;;;2.78;;
16450;SDS011;12243;42.708;23.310;2022-09-13T08:27:45;2.60;;;2.40;;
16450;SDS011;12243;42.708;23.310;2022-09-13T08:30:12;2.58;;;2.38;;
16450;SDS011;12243;42.708;23.310;2022-09-13T08:32:40;2.72;;;2.53;;
16450;SDS011;12243;42.708;23.310;2022-09-13T08:35:09;3.00;;;2.72;;
16450;SDS011;12243;42.708;23.310;2022-09-13T08:37:36;2.35;;;2.20;;
16450;SDS011;12243;42.708;23.310;2022-09-13T08:40:03;3.25;;;2.40;;
16450;SDS011;12243;42.708;23.310;2022-09-13T08:42:35;2.72;;;2.53;;
16450;SDS011;12243;42.708;23.310;2022-09-13T08:45:13;2.58;;;2.47;;
16450;SDS011;12243;42.708;23.310;2022-09-13T08:47:42;2.13;;;2.13;;
16450;SDS011;12243;42.708;23.310;2022-09-13T08:50:16;2.30;;;2.20;;
16450;SDS011;12243;42.708;23.310;2022-09-13T08:52:48;2.25;;;2.15;;
16450;SDS011;12243;42.708;23.310;2022-09-13T08:55:24;2.20;;;2.00;;
16450;SDS011;12243;42.708;23.310;2022-09-13T08:58:00;2.63;;;2.38;;
16450;SDS011;12243;42.708;23.310;2022-09-13T09:00:34;2.20;;;2.10;;
16450;SDS011;12243;42.708;23.310;2022-09-13T09:03:10;3.67;;;2.25;;
16450;SDS011;12243;42.708;23.310;2022-09-13T09:05:48;2.20;;;2.10;;
16450;SDS011;12243;42.708;23.310;2022-09-13T09:08:19;2.13;;;2.00;;
16450;SDS011;12243;42.708;23.310;2022-09-13T09:10:55;2.10;;;2.00;;
16450;SDS011;12243;42.708;23.310;2022-09-13T09:13:28;2.55;;;2.38;;
16450;SDS011;12243;42.708;23.310;2022-09-13T09:15:59;4.32;;;3.92;;
16450;SDS011;12243;42.708;23.310;2022-09-13T09:18:31;2.55;;;2.40;;
16450;SDS011;12243;42.708;23.310;2022-09-13T09:21:03;2.35;;;2.28;;
16450;SDS011;12243;42.708;23.310;2022-09-13T09:23:37;4.38;;;2.05;;
16450;SDS011;12243;42.708;23.310;2022-09-13T09:26:12;4.15;;;2.47;;
16450;SDS011;12243;42.708;23.310;2022-09-13T09:28:41;2.60;;;2.40;;
16450;SDS011;12243;42.708;23.310;2022-09-13T09:31:09;2.00;;;1.90;;
16450;SDS011;12243;42.708;23.310;2022-09-13T09:33:48;2.63;;;2.10;;
16450;SDS011;12243;42.708;23.310;2022-09-13T09:36:30;3.88;;;2.20;;
16450;SDS011;12243;42.708;23.310;2022-09-13T09:39:04;2.30;;;2.20;;
16450;SDS011;12243;42.708;23.310;2022-09-13T09:41:33;2.40;;;2.30;;
16450;SDS011;12243;42.708;23.310;2022-09-13T09:44:05;2.05;;;1.95;;
16450;SDS011;12243;42.708;23.310;2022-09-13T09:46:42;2.10;;;2.00;;
16450;SDS011;12243;42.708;23.310;2022-09-13T09:49:13;4.70;;;2.35;;
16450;SDS011;12243;42.708;23.310;2022-09-13T09:55:46;3.53;;;2.40;;
16450;SDS011;12243;42.708;23.310;2022-09-13T09:58:17;2.47;;;2.38;;
16450;SDS011;12243;42.708;23.310;2022-09-13T10:01:03;2.28;;;2.17;;
16450;SDS011;12243;42.708;23.310;2022-09-13T10:03:32;2.67;;;2.50;;
16450;SDS011;12243;42.708;23.310;2022-09-13T10:06:04;2.17;;;2.00;;
16450;SDS011;12243;42.708;23.310;2022-09-13T10:08:33;2.45;;;2.35;;
16450;SDS011;12243;42.708;23.310;2022-09-13T10:11:03;2.50;;;2.30;;
16450;SDS011;12243;42.708;23.310;2022-09-13T10:13:32;2.72;;;2.53;;
16450;SDS011;12243;42.708;23.310;2022-09-13T10:16:00;2.88;;;2.67;;
16450;SDS011;12243;42.708;23.310;2022-09-13T10:18:28;2.38;;;2.13;;
16450;SDS011;12243;42.708;23.310;2022-09-13T10:21:00;2.47;;;2.30;;
16450;SDS011;12243;42.708;23.310;2022-09-13T10:23:29;2.45;;;2.35;;
16450;SDS011;12243;42.708;23.310;2022-09-13T10:25:59;3.92;;;2.75;;
16450;SDS011;12243;42.708;23.310;2022-09-13T10:28:31;2.00;;;2.00;;
16450;SDS011;12243;42.708;23.310;2022-09-13T10:31:01;3.40;;;2.20;;
16450;SDS011;12243;42.708;23.310;2022-09-13T10:33:32;2.85;;;2.67;;
16450;SDS011;12243;42.708;23.310;2022-09-13T10:36:02;2.55;;;2.40;;
16450;SDS011;12243;42.708;23.310;2022-09-13T10:38:35;2.50;;;2.22;;
16450;SDS011;12243;42.708;23.310;2022-09-13T10:41:06;2.55;;;2.38;;
16450;SDS011;12243;42.708;23.310;2022-09-13T10:43:36;3.47;;;2.15;;
16450;SDS011;12243;42.708;23.310;2022-09-13T10:46:04;2.50;;;2.30;;
16450;SDS011;12243;42.708;23.310;2022-09-13T11:03:24;2.33;;;2.13;;
16450;SDS011;12243;42.708;23.310;2022-09-13T11:06:02;2.55;;;2.45;;
16450;SDS011;12243;42.708;23.310;2022-09-13T11:08:39;3.97;;;2.30;;
16450;SDS011;12243;42.708;23.310;2022-09-13T11:11:14;3.55;;;2.45;;
16450;SDS011;12243;42.708;23.310;2022-09-13T11:13:59;3.15;;;2.47;;
16450;SDS011;12243;42.708;23.310;2022-09-13T11:16:45;2.60;;;2.50;;
16450;SDS011;12243;42.708;23.310;2022-09-13T11:22:38;1.90;;;1.90;;
16450;SDS011;12243;42.708;23.310;2022-09-13T11:25:25;2.20;;;2.10;;
16450;SDS011;12243;42.708;23.310;2022-09-13T11:28:05;2.38;;;2.20;;
16450;SDS011;12243;42.708;23.310;2022-09-13T11:30:47;2.10;;;2.10;;
16450;SDS011;12243;42.708;23.310;2022-09-13T11:33:34;1.98;;;1.98;;
16450;SDS011;12243;42.708;23.310;2022-09-13T11:36:21;3.75;;;2.08;;
16450;SDS011;12243;42.708;23.310;2022-09-13T11:39:08;2.22;;;2.13;;
16450;SDS011;12243;42.708;23.310;2022-09-13T11:41:42;1.63;;;1.63;;
16450;SDS011;12243;42.708;23.310;2022-09-13T11:44:32;1.98;;;1.88;;
16450;SDS011;12243;42.708;23.310;2022-09-13T11:47:15;1.80;;;1.80;;
16450;SDS011;12243;42.708;23.310;2022-09-13T11:50:03;2.75;;;2.20;;
16450;SDS011;12243;42.708;23.310;2022-09-13T11:52:49;2.00;;;1.85;;
16450;SDS011;12243;42.708;23.310;2022-09-13T11:55:27;2.45;;;2.35;;
16450;SDS011;12243;42.708;23.310;2022-09-13T11:57:59;1.98;;;1.80;;
16450;SDS011;12243;42.708;23.310;2022-09-13T12:00:29;1.80;;;1.80;;
16450;SDS011;12243;42.708;23.310;2022-09-13T12:03:02;1.90;;;1.90;;
16450;SDS011;12243;42.708;23.310;2022-09-13T12:05:38;2.38;;;2.20;;
16450;SDS011;12243;42.708;23.310;2022-09-13T12:08:10;2.00;;;1.95;;
16450;SDS011;12243;42.708;23.310;2022-09-13T12:10:45;1.70;;;1.70;;
16450;SDS011;12243;42.708;23.310;2022-09-13T12:13:17;2.05;;;1.95;;
16450;SDS011;12243;42.708;23.310;2022-09-13T12:15:48;3.75;;;1.88;;
16450;SDS011;12243;42.708;23.310;2022-09-13T12:18:18;2.53;;;2.33;;
16450;SDS011;12243;42.708;23.310;2022-09-13T12:20:50;2.53;;;1.73;;
16450;SDS011;12243;42.708;23.310;2022-09-13T12:23:21;2.28;;;2.17;;
16450;SDS011;12243;42.708;23.310;2022-09-13T12:25:56;3.00;;;2.90;;
16450;SDS011;12243;42.708;23.310;2022-09-13T12:28:27;2.60;;;2.45;;
16450;SDS011;12243;42.708;23.310;2022-09-13T12:31:00;5.18;;;1.88;;
16450;SDS011;12243;42.708;23.310;2022-09-13T12:33:30;2.13;;;1.90;;
16450;SDS011;12243;42.708;23.310;2022-09-13T12:36:05;1.92;;;1.92;;
16450;SDS011;12243;42.708;23.310;2022-09-13T12:39:01;2.10;;;2.00;;
16450;SDS011;12243;42.708;23.310;2022-09-13T12:41:55;2.20;;;1.88;;
16450;SDS011;12243;42.708;23.310;2022-09-13T12:44:39;2.03;;;1.92;;
16450;SDS011;12243;42.708;23.310;2022-09-13T12:50:31;2.30;;;2.00;;
16450;SDS011;12243;42.708;23.310;2022-09-13T12:53:14;2.55;;;2.05;;
16450;SDS011;12243;42.708;23.310;2022-09-13T12:59:07;2.25;;;2.15;;
16450;SDS011;12243;42.708;23.310;2022-09-13T13:01:46;2.10;;;2.00;;
16450;SDS011;12243;42.708;23.310;2022-09-13T13:04:17;3.17;;;1.95;;
16450;SDS011;12243;42.708;23.310;2022-09-13T13:06:48;2.28;;;2.17;;
16450;SDS011;12243;42.708;23.310;2022-09-13T13:09:21;4.82;;;1.83;;
16450;SDS011;12243;42.708;23.310;2022-09-13T13:11:52;1.95;;;1.85;;
16450;SDS011;12243;42.708;23.310;2022-09-13T13:14:26;1.90;;;1.80;;
16450;SDS011;12243;42.708;23.310;2022-09-13T13:23:23;2.10;;;2.00;;
16450;SDS011;12243;42.708;23.310;2022-09-13T13:26:10;2.28;;;2.17;;
16450;SDS011;12243;42.708;23.310;2022-09-13T13:31:42;2.90;;;2.20;;
16450;SDS011;12243;42.708;23.310;2022-09-13T13:34:27;2.70;;;2.45;;
16450;SDS011;12243;42.708;23.310;2022-09-13T13:37:05;2.25;;;2.15;;
16450;SDS011;12243;42.708;23.310;2022-09-13T13:40:10;6.07;;;2.40;;
16450;SDS011;12243;42.708;23.310;2022-09-13T13:45:58;5.50;;;2.45;;
16450;SDS011;12243;42.708;23.310;2022-09-13T13:48:41;2.40;;;2.30;;
16450;SDS011;12243;42.708;23.310;2022-09-13T13:51:16;3.78;;;2.45;;
16450;SDS011;12243;42.708;23.310;2022-09-13T13:53:57;2.50;;;2.35;;
16450;SDS011;12243;42.708;23.310;2022-09-13T13:56:34;2.85;;;2.40;;
16450;SDS011;12243;42.708;23.310;2022-09-13T13:59:12;3.03;;;2.38;;
16450;SDS011;12243;42.708;23.310;2022-09-13T14:01:44;2.50;;;2.42;;
16450;SDS011;12243;42.708;23.310;2022-09-13T14:04:38;2.40;;;2.30;;
16450;SDS011;12243;42.708;23.310;2022-09-13T14:07:29;2.53;;;2.33;;
16450;SDS011;12243;42.708;23.310;2022-09-13T14:10:16;5.13;;;2.53;;
16450;SDS011;12243;42.708;23.310;2022-09-13T14:12:56;2.33;;;2.22;;
16450;SDS011;12243;42.708;23.310;2022-09-13T14:15:49;2.35;;;2.25;;
16450;SDS011;12243;42.708;23.310;2022-09-13T14:21:25;2.20;;;2.10;;
16450;SDS011;12243;42.708;23.310;2022-09-13T14:24:06;4.10;;;2.10;;
16450;SDS011;12243;42.708;23.310;2022-09-13T14:26:35;3.20;;;3.00;;
16450;SDS011;12243;42.708;23.310;2022-09-13T14:29:05;3.72;;;2.40;;
16450;SDS011;12243;42.708;23.310;2022-09-13T14:31:33;2.47;;;2.38;;
16450;SDS011;12243;42.708;23.310;2022-09-13T14:34:00;2.42;;;2.25;;
16450;SDS011;12243;42.708;23.310;2022-09-13T14:36:29;4.00;;;2.50;;
16450;SDS011;12243;42.708;23.310;2022-09-13T14:38:57;2.67;;;2.47;;
16450;SDS011;12243;42.708;23.310;2022-09-13T14:41:30;2.30;;;2.17;;
16450;SDS011;12243;42.708;23.310;2022-09-13T14:46:42;2.50;;;2.10;;
16450;SDS011;12243;42.708;23.310;2022-09-13T14:49:14;2.55;;;2.35;;
16450;SDS011;12243;42.708;23.310;2022-09-13T14:51:53;2.83;;;2.10;;
16450;SDS011;12243;42.708;23.310;2022-09-13T14:54:24;2.45;;;2.35;;
16450;SDS011;12243;42.708;23.310;2022-09-13T14:56:57;2.42;;;2.33;;
16450;SDS011;12243;42.708;23.310;2022-09-13T14:59:27;3.00;;;2.58;;
16450;SDS011;12243;42.708;23.310;2022-09-13T15:01:57;2.40;;;2.30;;
16450;SDS011;12243;42.708;23.310;2022-09-13T15:04:29;2.70;;;2.50;;
16450;SDS011;12243;42.708;23.310;2022-09-13T15:07:08;2.47;;;2.30;;
16450;SDS011;12243;42.708;23.310;2022-09-13T15:09:44;2.78;;;2.65;;
16450;SDS011;12243;42.708;23.310;2022-09-13T15:12:20;2.60;;;2.50;;
16450;SDS011;12243;42.708;23.310;2022-09-13T15:17:51;2.53;;;2.28;;
16450;SDS011;12243;42.708;23.310;2022-09-13T15:20:22;2.58;;;2.47;;
16450;SDS011;12243;42.708;23.310;2022-09-13T15:22:51;2.38;;;2.22;;
16450;SDS011;12243;42.708;23.310;2022-09-13T15:25:19;2.33;;;2.22;;
16450;SDS011;12243;42.708;23.310;2022-09-13T15:27:50;3.50;;;3.20;;
16450;SDS011;12243;42.708;23.310;2022-09-13T15:30:22;2.53;;;2.42;;
16450;SDS011;12243;42.708;23.310;2022-09-13T15:35:46;3.92;;;3.70;;
16450;SDS011;12243;42.708;23.310;2022-09-13T15:38:19;2.80;;;2.70;;
16450;SDS011;12243;42.708;23.310;2022-09-13T15:43:38;3.22;;;2.60;;
16450;SDS011;12243;42.708;23.310;2022-09-13T15:46:05;2.65;;;2.45;;
16450;SDS011;12243;42.708;23.310;2022-09-13T15:48:37;4.07;;;2.95;;
16450;SDS011;12243;42.708;23.310;2022-09-13T15:51:06;3.05;;;2.78;;
16450;SDS011;12243;42.708;23.310;2022-09-13T15:53:37;2.80;;;2.70;;
16450;SDS011;12243;42.708;23.310;2022-09-13T15:56:05;2.58;;;2.38;;
16450;SDS011;12243;42.708;23.310;2022-09-13T15:58:36;2.67;;;2.58;;
16450;SDS011;12243;42.708;23.310;2022-09-13T16:01:04;2.72;;;2.63;;
16450;SDS011;12243;42.708;23.310;2022-09-13T16:03:31;3.30;;;2.88;;
16450;SDS011;12243;42.708;23.310;2022-09-13T16:05:58;4.03;;;3.42;;
16450;SDS011;12243;42.708;23.310;2022-09-13T16:08:25;3.28;;;3.08;;
16450;SDS011;12243;42.708;23.310;2022-09-13T16:10:53;6.25;;;4.53;;
16450;SDS011;12243;42.708;23.310;2022-09-13T16:13:20;4.28;;;3.60;;
16450;SDS011;12243;42.708;23.310;2022-09-13T16:15:48;3.10;;;2.80;;
16450;SDS011;12243;42.708;23.310;2022-09-13T16:18:15;3.05;;;2.90;;